sensor_id;sensor_type;location;lat;lon;timestamp;temperature;humidity
22145;DHT22;11238;48.730;11.566;2023-07-20T00:02:09;19.60;97.00
22145;DHT22;11238;48.730;11.566;2023-07-20T00:04:35;19.50;97.20
22145;DHT22;11238;48.730;11.566;2023-07-20T00:07:01;19.50;96.20
22145;DHT22;11238;48.730;11.566;2023-07-20T00:09:27;19.50;97.20
22145;DHT22;11238;48.730;11.566;2023-07-20T00:11:53;19.50;97.70
22145;DHT22;11238;48.730;11.566;2023-07-20T00:14:19;19.50;97.90
22145;DHT22;11238;48.730;11.566;2023-07-20T00:16:46;19.40;98.60
22145;DHT22;11238;48.730;11.566;2023-07-20T00:19:12;19.40;98.50
22145;DHT22;11238;48.730;11.566;2023-07-20T00:21:38;19.50;98.40
22145;DHT22;11238;48.730;11.566;2023-07-20T00:24:08;19.40;98.30
22145;DHT22;11238;48.730;11.566;2023-07-20T00:26:34;19.50;98.30
22145;DHT22;11238;48.730;11.566;2023-07-20T00:29:00;19.40;98.20
22145;DHT22;11238;48.730;11.566;2023-07-20T00:31:26;19.40;98.20
22145;DHT22;11238;48.730;11.566;2023-07-20T00:33:52;19.40;98.30
22145;DHT22;11238;48.730;11.566;2023-07-20T00:36:18;19.40;98.00
22145;DHT22;11238;48.730;11.566;2023-07-20T00:38:44;19.40;97.80
22145;DHT22;11238;48.730;11.566;2023-07-20T00:41:09;19.30;98.10
22145;DHT22;11238;48.730;11.566;2023-07-20T00:43:35;19.20;98.30
22145;DHT22;11238;48.730;11.566;2023-07-20T00:46:01;19.10;98.90
22145;DHT22;11238;48.730;11.566;2023-07-20T00:48:29;19.00;99.50
22145;DHT22;11238;48.730;11.566;2023-07-20T00:51:00;19.00;99.40
22145;DHT22;11238;48.730;11.566;2023-07-20T00:53:27;18.90;99.40
22145;DHT22;11238;48.730;11.566;2023-07-20T00:55:53;18.80;99.10
22145;DHT22;11238;48.730;11.566;2023-07-20T00:58:19;18.80;99.60
22145;DHT22;11238;48.730;11.566;2023-07-20T01:00:45;18.70;99.90
22145;DHT22;11238;48.730;11.566;2023-07-20T01:03:11;18.60;99.90
22145;DHT22;11238;48.730;11.566;2023-07-20T01:08:40;18.30;99.90
22145;DHT22;11238;48.730;11.566;2023-07-20T01:11:37;18.30;99.90
22145;DHT22;11238;48.730;11.566;2023-07-20T01:14:05;18.30;99.90
22145;DHT22;11238;48.730;11.566;2023-07-20T01:16:32;18.30;99.90
22145;DHT22;11238;48.730;11.566;2023-07-20T01:18:58;18.30;99.90
22145;DHT22;11238;48.730;11.566;2023-07-20T01:21:36;18.40;99.90
22145;DHT22;11238;48.730;11.566;2023-07-20T01:30:16;18.50;99.90
22145;DHT22;11238;48.730;11.566;2023-07-20T01:32:44;18.50;99.90
22145;DHT22;11238;48.730;11.566;2023-07-20T01:35:12;18.50;99.90
22145;DHT22;11238;48.730;11.566;2023-07-20T01:37:42;18.60;99.90
22145;DHT22;11238;48.730;11.566;2023-07-20T01:40:10;18.50;99.90
22145;DHT22;11238;48.730;11.566;2023-07-20T01:42:36;18.50;99.90
22145;DHT22;11238;48.730;11.566;2023-07-20T01:45:02;18.60;99.90
22145;DHT22;11238;48.730;11.566;2023-07-20T01:47:28;18.50;99.90
22145;DHT22;11238;48.730;11.566;2023-07-20T01:49:54;18.60;99.90
22145;DHT22;11238;48.730;11.566;2023-07-20T01:52:19;18.60;99.90
22145;DHT22;11238;48.730;11.566;2023-07-20T01:54:45;18.60;99.90
22145;DHT22;11238;48.730;11.566;2023-07-20T01:57:11;18.60;99.90
22145;DHT22;11238;48.730;11.566;2023-07-20T01:59:37;18.50;99.90
22145;DHT22;11238;48.730;11.566;2023-07-20T02:02:03;18.50;99.90
22145;DHT22;11238;48.730;11.566;2023-07-20T02:04:29;18.40;99.90
22145;DHT22;11238;48.730;11.566;2023-07-20T02:06:55;18.50;99.90
22145;DHT22;11238;48.730;11.566;2023-07-20T02:09:23;18.30;99.90
22145;DHT22;11238;48.730;11.566;2023-07-20T02:11:48;18.30;99.90
22145;DHT22;11238;48.730;11.566;2023-07-20T02:14:14;18.30;99.90
22145;DHT22;11238;48.730;11.566;2023-07-20T02:16:40;18.40;99.90
22145;DHT22;11238;48.730;11.566;2023-07-20T02:19:06;18.40;99.90
22145;DHT22;11238;48.730;11.566;2023-07-20T02:21:32;18.30;99.90
22145;DHT22;11238;48.730;11.566;2023-07-20T02:23:59;18.20;99.90
22145;DHT22;11238;48.730;11.566;2023-07-20T02:26:25;18.20;99.90
22145;DHT22;11238;48.730;11.566;2023-07-20T02:28:51;18.20;99.90
22145;DHT22;11238;48.730;11.566;2023-07-20T02:31:17;18.30;99.90
22145;DHT22;11238;48.730;11.566;2023-07-20T02:33:43;18.30;99.90
22145;DHT22;11238;48.730;11.566;2023-07-20T02:36:09;18.40;99.90
22145;DHT22;11238;48.730;11.566;2023-07-20T02:38:34;18.50;99.90
22145;DHT22;11238;48.730;11.566;2023-07-20T02:41:00;18.50;99.90
22145;DHT22;11238;48.730;11.566;2023-07-20T02:43:26;18.50;99.90
22145;DHT22;11238;48.730;11.566;2023-07-20T02:45:53;18.40;99.90
22145;DHT22;11238;48.730;11.566;2023-07-20T02:48:18;18.30;99.90
22145;DHT22;11238;48.730;11.566;2023-07-20T02:50:44;18.40;99.90
22145;DHT22;11238;48.730;11.566;2023-07-20T02:53:10;18.50;99.90
22145;DHT22;11238;48.730;11.566;2023-07-20T02:55:36;18.50;99.90
22145;DHT22;11238;48.730;11.566;2023-07-20T02:58:02;18.50;99.90
22145;DHT22;11238;48.730;11.566;2023-07-20T03:00:28;18.60;99.90
22145;DHT22;11238;48.730;11.566;2023-07-20T03:02:57;18.50;99.90
22145;DHT22;11238;48.730;11.566;2023-07-20T03:05:23;18.50;99.90
22145;DHT22;11238;48.730;11.566;2023-07-20T03:07:54;18.50;99.90
22145;DHT22;11238;48.730;11.566;2023-07-20T03:10:20;18.60;99.90
22145;DHT22;11238;48.730;11.566;2023-07-20T03:12:46;18.60;99.90
22145;DHT22;11238;48.730;11.566;2023-07-20T03:15:12;18.50;99.90
22145;DHT22;11238;48.730;11.566;2023-07-20T03:17:39;18.50;99.90
22145;DHT22;11238;48.730;11.566;2023-07-20T03:20:05;18.40;99.90
22145;DHT22;11238;48.730;11.566;2023-07-20T03:22:34;18.40;99.90
22145;DHT22;11238;48.730;11.566;2023-07-20T03:25:00;18.30;99.90
22145;DHT22;11238;48.730;11.566;2023-07-20T03:27:26;18.30;99.90
22145;DHT22;11238;48.730;11.566;2023-07-20T03:29:54;18.20;99.90
22145;DHT22;11238;48.730;11.566;2023-07-20T03:32:20;18.20;99.90
22145;DHT22;11238;48.730;11.566;2023-07-20T03:34:46;18.10;99.90
22145;DHT22;11238;48.730;11.566;2023-07-20T03:37:13;18.00;99.90
22145;DHT22;11238;48.730;11.566;2023-07-20T03:39:39;18.00;99.90
22145;DHT22;11238;48.730;11.566;2023-07-20T03:42:07;18.00;99.90
22145;DHT22;11238;48.730;11.566;2023-07-20T03:44:33;18.00;99.90
22145;DHT22;11238;48.730;11.566;2023-07-20T03:46:59;18.00;99.90
22145;DHT22;11238;48.730;11.566;2023-07-20T03:49:25;17.90;99.90
22145;DHT22;11238;48.730;11.566;2023-07-20T03:51:51;17.90;99.90
22145;DHT22;11238;48.730;11.566;2023-07-20T03:54:16;17.90;99.90
22145;DHT22;11238;48.730;11.566;2023-07-20T03:56:42;18.00;99.90
22145;DHT22;11238;48.730;11.566;2023-07-20T03:59:08;18.00;99.90
22145;DHT22;11238;48.730;11.566;2023-07-20T04:01:34;18.10;99.90
22145;DHT22;11238;48.730;11.566;2023-07-20T04:04:06;18.10;99.90
22145;DHT22;11238;48.730;11.566;2023-07-20T04:06:33;18.10;99.90
22145;DHT22;11238;48.730;11.566;2023-07-20T04:08:58;18.10;99.90
22145;DHT22;11238;48.730;11.566;2023-07-20T04:11:24;18.10;99.90
22145;DHT22;11238;48.730;11.566;2023-07-20T04:13:50;18.30;99.90
22145;DHT22;11238;48.730;11.566;2023-07-20T04:16:16;18.20;99.90
22145;DHT22;11238;48.730;11.566;2023-07-20T04:18:42;18.10;99.20
22145;DHT22;11238;48.730;11.566;2023-07-20T04:21:08;18.00;99.10
22145;DHT22;11238;48.730;11.566;2023-07-20T04:23:38;18.00;99.90
22145;DHT22;11238;48.730;11.566;2023-07-20T04:26:03;18.10;99.90
22145;DHT22;11238;48.730;11.566;2023-07-20T04:28:32;18.00;99.70
22145;DHT22;11238;48.730;11.566;2023-07-20T04:31:15;18.00;98.60
22145;DHT22;11238;48.730;11.566;2023-07-20T04:33:42;18.00;99.80
22145;DHT22;11238;48.730;11.566;2023-07-20T04:36:08;18.00;99.10
22145;DHT22;11238;48.730;11.566;2023-07-20T04:38:35;17.90;98.50
22145;DHT22;11238;48.730;11.566;2023-07-20T04:41:14;18.00;98.00
22145;DHT22;11238;48.730;11.566;2023-07-20T04:43:45;18.10;98.30
22145;DHT22;11238;48.730;11.566;2023-07-20T04:46:13;18.00;98.80
22145;DHT22;11238;48.730;11.566;2023-07-20T04:48:40;18.10;98.10
22145;DHT22;11238;48.730;11.566;2023-07-20T04:51:06;18.10;98.10
22145;DHT22;11238;48.730;11.566;2023-07-20T04:53:32;18.10;98.20
22145;DHT22;11238;48.730;11.566;2023-07-20T04:55:58;18.20;98.10
22145;DHT22;11238;48.730;11.566;2023-07-20T04:58:25;18.20;97.10
22145;DHT22;11238;48.730;11.566;2023-07-20T05:00:52;18.20;97.10
22145;DHT22;11238;48.730;11.566;2023-07-20T05:03:19;18.30;97.70
22145;DHT22;11238;48.730;11.566;2023-07-20T05:05:47;18.40;97.30
22145;DHT22;11238;48.730;11.566;2023-07-20T05:08:13;18.40;97.30
22145;DHT22;11238;48.730;11.566;2023-07-20T05:10:39;18.50;97.40
22145;DHT22;11238;48.730;11.566;2023-07-20T05:13:05;18.50;96.90
22145;DHT22;11238;48.730;11.566;2023-07-20T05:15:33;18.50;96.80
22145;DHT22;11238;48.730;11.566;2023-07-20T05:18:00;18.40;97.30
22145;DHT22;11238;48.730;11.566;2023-07-20T05:20:26;18.40;97.50
22145;DHT22;11238;48.730;11.566;2023-07-20T05:22:53;18.50;97.20
22145;DHT22;11238;48.730;11.566;2023-07-20T05:25:19;18.40;96.60
22145;DHT22;11238;48.730;11.566;2023-07-20T05:27:48;18.30;96.40
22145;DHT22;11238;48.730;11.566;2023-07-20T05:30:14;18.20;95.40
22145;DHT22;11238;48.730;11.566;2023-07-20T05:32:40;18.20;97.60
22145;DHT22;11238;48.730;11.566;2023-07-20T05:35:06;18.30;97.70
22145;DHT22;11238;48.730;11.566;2023-07-20T05:37:32;18.30;96.60
22145;DHT22;11238;48.730;11.566;2023-07-20T05:39:58;18.50;96.80
22145;DHT22;11238;48.730;11.566;2023-07-20T05:42:24;18.40;96.10
22145;DHT22;11238;48.730;11.566;2023-07-20T05:44:50;18.40;96.70
22145;DHT22;11238;48.730;11.566;2023-07-20T05:47:18;18.30;95.80
22145;DHT22;11238;48.730;11.566;2023-07-20T05:49:44;18.30;95.80
22145;DHT22;11238;48.730;11.566;2023-07-20T05:52:09;18.30;95.90
22145;DHT22;11238;48.730;11.566;2023-07-20T05:54:35;18.50;96.60
22145;DHT22;11238;48.730;11.566;2023-07-20T05:57:01;18.50;96.00
22145;DHT22;11238;48.730;11.566;2023-07-20T05:59:27;18.40;95.30
22145;DHT22;11238;48.730;11.566;2023-07-20T06:01:55;18.60;96.80
22145;DHT22;11238;48.730;11.566;2023-07-20T06:04:21;18.60;96.40
22145;DHT22;11238;48.730;11.566;2023-07-20T06:06:47;18.60;95.80
22145;DHT22;11238;48.730;11.566;2023-07-20T06:09:13;18.60;95.50
22145;DHT22;11238;48.730;11.566;2023-07-20T06:11:40;18.50;95.40
22145;DHT22;11238;48.730;11.566;2023-07-20T06:14:05;18.50;95.50
22145;DHT22;11238;48.730;11.566;2023-07-20T06:16:32;18.60;96.10
22145;DHT22;11238;48.730;11.566;2023-07-20T06:19:00;18.90;96.30
22145;DHT22;11238;48.730;11.566;2023-07-20T06:21:26;18.90;95.70
22145;DHT22;11238;48.730;11.566;2023-07-20T06:23:52;19.00;95.20
22145;DHT22;11238;48.730;11.566;2023-07-20T06:26:18;19.20;95.00
22145;DHT22;11238;48.730;11.566;2023-07-20T06:28:45;19.30;94.90
22145;DHT22;11238;48.730;11.566;2023-07-20T06:31:11;19.20;94.80
22145;DHT22;11238;48.730;11.566;2023-07-20T06:33:37;19.10;95.20
22145;DHT22;11238;48.730;11.566;2023-07-20T06:36:03;18.90;94.50
22145;DHT22;11238;48.730;11.566;2023-07-20T06:38:29;18.90;95.90
22145;DHT22;11238;48.730;11.566;2023-07-20T06:40:55;19.00;95.00
22145;DHT22;11238;48.730;11.566;2023-07-20T06:43:24;19.00;95.50
22145;DHT22;11238;48.730;11.566;2023-07-20T06:45:53;19.10;95.30
22145;DHT22;11238;48.730;11.566;2023-07-20T06:48:19;19.20;95.20
22145;DHT22;11238;48.730;11.566;2023-07-20T06:50:46;19.30;94.70
22145;DHT22;11238;48.730;11.566;2023-07-20T06:53:13;19.30;94.20
22145;DHT22;11238;48.730;11.566;2023-07-20T06:55:39;19.30;94.20
22145;DHT22;11238;48.730;11.566;2023-07-20T06:58:05;19.50;94.70
22145;DHT22;11238;48.730;11.566;2023-07-20T07:00:30;19.60;93.90
22145;DHT22;11238;48.730;11.566;2023-07-20T07:02:57;19.60;94.20
22145;DHT22;11238;48.730;11.566;2023-07-20T07:05:22;19.70;94.70
22145;DHT22;11238;48.730;11.566;2023-07-20T07:07:48;19.70;94.30
22145;DHT22;11238;48.730;11.566;2023-07-20T07:10:14;19.70;94.20
22145;DHT22;11238;48.730;11.566;2023-07-20T07:12:40;19.80;93.90
22145;DHT22;11238;48.730;11.566;2023-07-20T07:15:07;19.90;94.00
22145;DHT22;11238;48.730;11.566;2023-07-20T07:17:33;19.90;93.70
22145;DHT22;11238;48.730;11.566;2023-07-20T07:19:59;20.00;94.00
22145;DHT22;11238;48.730;11.566;2023-07-20T07:22:25;19.90;93.10
22145;DHT22;11238;48.730;11.566;2023-07-20T07:24:51;19.90;93.40
22145;DHT22;11238;48.730;11.566;2023-07-20T07:27:17;20.10;93.50
22145;DHT22;11238;48.730;11.566;2023-07-20T07:29:43;20.20;93.80
22145;DHT22;11238;48.730;11.566;2023-07-20T07:32:12;20.30;93.80
22145;DHT22;11238;48.730;11.566;2023-07-20T07:34:38;20.40;93.70
22145;DHT22;11238;48.730;11.566;2023-07-20T07:37:05;20.60;93.50
22145;DHT22;11238;48.730;11.566;2023-07-20T07:39:31;20.60;92.60
22145;DHT22;11238;48.730;11.566;2023-07-20T07:41:57;20.70;92.60
22145;DHT22;11238;48.730;11.566;2023-07-20T07:44:23;20.80;92.80
22145;DHT22;11238;48.730;11.566;2023-07-20T07:46:49;20.70;92.90
22145;DHT22;11238;48.730;11.566;2023-07-20T07:49:16;20.70;92.30
22145;DHT22;11238;48.730;11.566;2023-07-20T07:51:42;20.70;92.30
22145;DHT22;11238;48.730;11.566;2023-07-20T07:54:08;20.80;91.90
22145;DHT22;11238;48.730;11.566;2023-07-20T07:56:34;20.90;92.00
22145;DHT22;11238;48.730;11.566;2023-07-20T07:59:00;21.00;91.60
22145;DHT22;11238;48.730;11.566;2023-07-20T08:01:25;21.00;90.90
22145;DHT22;11238;48.730;11.566;2023-07-20T08:03:51;21.10;90.20
22145;DHT22;11238;48.730;11.566;2023-07-20T08:06:24;21.10;91.10
22145;DHT22;11238;48.730;11.566;2023-07-20T08:08:56;21.10;91.20
22145;DHT22;11238;48.730;11.566;2023-07-20T08:11:24;21.10;91.20
22145;DHT22;11238;48.730;11.566;2023-07-20T08:14:00;21.30;91.00
22145;DHT22;11238;48.730;11.566;2023-07-20T08:16:33;21.20;87.70
22145;DHT22;11238;48.730;11.566;2023-07-20T08:18:59;21.20;89.90
22145;DHT22;11238;48.730;11.566;2023-07-20T08:21:25;21.30;90.20
22145;DHT22;11238;48.730;11.566;2023-07-20T08:23:52;21.30;90.20
22145;DHT22;11238;48.730;11.566;2023-07-20T08:26:17;21.40;90.10
22145;DHT22;11238;48.730;11.566;2023-07-20T08:28:44;21.20;87.30
22145;DHT22;11238;48.730;11.566;2023-07-20T08:31:11;21.30;89.40
22145;DHT22;11238;48.730;11.566;2023-07-20T08:33:37;21.10;86.50
22145;DHT22;11238;48.730;11.566;2023-07-20T08:36:02;21.20;87.80
22145;DHT22;11238;48.730;11.566;2023-07-20T08:38:29;21.20;88.90
22145;DHT22;11238;48.730;11.566;2023-07-20T08:40:54;21.30;86.70
22145;DHT22;11238;48.730;11.566;2023-07-20T08:43:22;21.40;87.00
22145;DHT22;11238;48.730;11.566;2023-07-20T08:45:50;21.60;86.50
22145;DHT22;11238;48.730;11.566;2023-07-20T08:48:18;21.80;85.70
22145;DHT22;11238;48.730;11.566;2023-07-20T08:50:45;21.80;84.30
22145;DHT22;11238;48.730;11.566;2023-07-20T08:53:13;21.80;86.40
22145;DHT22;11238;48.730;11.566;2023-07-20T08:55:45;21.60;84.90
22145;DHT22;11238;48.730;11.566;2023-07-20T08:58:13;21.70;85.40
22145;DHT22;11238;48.730;11.566;2023-07-20T09:00:41;21.70;84.00
22145;DHT22;11238;48.730;11.566;2023-07-20T09:03:08;21.80;83.40
22145;DHT22;11238;48.730;11.566;2023-07-20T09:05:35;21.90;82.60
22145;DHT22;11238;48.730;11.566;2023-07-20T09:08:01;22.00;83.90
22145;DHT22;11238;48.730;11.566;2023-07-20T09:10:29;21.80;81.40
22145;DHT22;11238;48.730;11.566;2023-07-20T09:12:55;21.50;82.20
22145;DHT22;11238;48.730;11.566;2023-07-20T09:15:24;21.60;79.60
22145;DHT22;11238;48.730;11.566;2023-07-20T09:17:51;21.80;81.70
22145;DHT22;11238;48.730;11.566;2023-07-20T09:20:20;21.70;81.80
22145;DHT22;11238;48.730;11.566;2023-07-20T09:22:50;21.90;80.90
22145;DHT22;11238;48.730;11.566;2023-07-20T09:25:40;22.10;80.90
22145;DHT22;11238;48.730;11.566;2023-07-20T09:28:06;22.10;80.40
22145;DHT22;11238;48.730;11.566;2023-07-20T09:30:32;22.20;80.90
22145;DHT22;11238;48.730;11.566;2023-07-20T09:32:58;22.20;78.70
22145;DHT22;11238;48.730;11.566;2023-07-20T09:35:24;22.30;78.90
22145;DHT22;11238;48.730;11.566;2023-07-20T09:38:03;22.50;77.60
22145;DHT22;11238;48.730;11.566;2023-07-20T09:40:29;22.60;77.60
22145;DHT22;11238;48.730;11.566;2023-07-20T09:42:55;22.40;78.30
22145;DHT22;11238;48.730;11.566;2023-07-20T09:45:42;22.00;77.60
22145;DHT22;11238;48.730;11.566;2023-07-20T09:48:13;22.10;78.90
22145;DHT22;11238;48.730;11.566;2023-07-20T09:50:43;22.10;79.10
22145;DHT22;11238;48.730;11.566;2023-07-20T09:53:20;22.30;79.50
22145;DHT22;11238;48.730;11.566;2023-07-20T09:58:21;22.40;76.40
22145;DHT22;11238;48.730;11.566;2023-07-20T10:00:51;22.40;78.10
22145;DHT22;11238;48.730;11.566;2023-07-20T10:03:19;22.30;76.30
22145;DHT22;11238;48.730;11.566;2023-07-20T10:05:54;22.30;76.70
22145;DHT22;11238;48.730;11.566;2023-07-20T10:08:24;22.40;75.50
22145;DHT22;11238;48.730;11.566;2023-07-20T10:11:15;22.50;76.30
22145;DHT22;11238;48.730;11.566;2023-07-20T10:13:43;22.60;77.40
22145;DHT22;11238;48.730;11.566;2023-07-20T10:16:22;22.60;77.10
22145;DHT22;11238;48.730;11.566;2023-07-20T10:19:07;22.40;72.90
22145;DHT22;11238;48.730;11.566;2023-07-20T10:21:40;22.50;74.00
22145;DHT22;11238;48.730;11.566;2023-07-20T10:24:09;22.50;76.90
22145;DHT22;11238;48.730;11.566;2023-07-20T10:26:35;22.70;74.60
22145;DHT22;11238;48.730;11.566;2023-07-20T10:29:08;22.70;73.30
22145;DHT22;11238;48.730;11.566;2023-07-20T10:31:34;22.70;75.10
22145;DHT22;11238;48.730;11.566;2023-07-20T10:34:07;22.70;73.90
22145;DHT22;11238;48.730;11.566;2023-07-20T10:36:33;22.80;72.40
22145;DHT22;11238;48.730;11.566;2023-07-20T10:39:22;22.90;73.60
22145;DHT22;11238;48.730;11.566;2023-07-20T10:41:49;23.20;73.10
22145;DHT22;11238;48.730;11.566;2023-07-20T10:44:19;23.40;71.00
22145;DHT22;11238;48.730;11.566;2023-07-20T10:47:12;23.40;69.00
22145;DHT22;11238;48.730;11.566;2023-07-20T10:50:05;23.30;67.00
22145;DHT22;11238;48.730;11.566;2023-07-20T10:52:40;23.30;66.50
22145;DHT22;11238;48.730;11.566;2023-07-20T10:55:33;23.20;66.20
22145;DHT22;11238;48.730;11.566;2023-07-20T10:58:09;23.20;65.40
22145;DHT22;11238;48.730;11.566;2023-07-20T11:00:36;23.30;66.50
22145;DHT22;11238;48.730;11.566;2023-07-20T11:03:02;23.30;67.10
22145;DHT22;11238;48.730;11.566;2023-07-20T11:05:38;23.20;64.00
22145;DHT22;11238;48.730;11.566;2023-07-20T11:08:10;23.20;64.10
22145;DHT22;11238;48.730;11.566;2023-07-20T11:20:50;23.70;62.10
22145;DHT22;11238;48.730;11.566;2023-07-20T11:23:16;23.60;61.40
22145;DHT22;11238;48.730;11.566;2023-07-20T11:25:45;23.60;61.80
22145;DHT22;11238;48.730;11.566;2023-07-20T11:28:11;23.50;63.10
22145;DHT22;11238;48.730;11.566;2023-07-20T11:30:38;23.50;63.00
22145;DHT22;11238;48.730;11.566;2023-07-20T11:33:08;23.60;63.30
22145;DHT22;11238;48.730;11.566;2023-07-20T11:35:36;23.80;60.80
22145;DHT22;11238;48.730;11.566;2023-07-20T11:38:07;24.10;60.70
22145;DHT22;11238;48.730;11.566;2023-07-20T11:40:33;24.40;62.20
22145;DHT22;11238;48.730;11.566;2023-07-20T11:42:59;24.50;59.00
22145;DHT22;11238;48.730;11.566;2023-07-20T11:45:25;24.60;59.60
22145;DHT22;11238;48.730;11.566;2023-07-20T11:47:58;24.70;57.70
22145;DHT22;11238;48.730;11.566;2023-07-20T11:50:24;24.70;58.70
22145;DHT22;11238;48.730;11.566;2023-07-20T11:52:50;24.80;57.30
22145;DHT22;11238;48.730;11.566;2023-07-20T11:55:17;25.00;58.90
22145;DHT22;11238;48.730;11.566;2023-07-20T12:00:29;25.00;58.80
22145;DHT22;11238;48.730;11.566;2023-07-20T12:02:55;24.70;57.70
22145;DHT22;11238;48.730;11.566;2023-07-20T12:05:22;24.40;57.40
22145;DHT22;11238;48.730;11.566;2023-07-20T12:07:49;24.60;58.60
22145;DHT22;11238;48.730;11.566;2023-07-20T12:10:27;24.70;58.20
22145;DHT22;11238;48.730;11.566;2023-07-20T12:13:18;24.90;58.50
22145;DHT22;11238;48.730;11.566;2023-07-20T12:15:44;25.00;56.80
22145;DHT22;11238;48.730;11.566;2023-07-20T12:18:09;25.30;57.00
22145;DHT22;11238;48.730;11.566;2023-07-20T12:20:36;25.30;54.60
22145;DHT22;11238;48.730;11.566;2023-07-20T12:23:13;25.20;54.30
22145;DHT22;11238;48.730;11.566;2023-07-20T12:25:46;25.30;55.00
22145;DHT22;11238;48.730;11.566;2023-07-20T12:28:17;25.40;53.20
22145;DHT22;11238;48.730;11.566;2023-07-20T12:30:45;25.50;53.80
22145;DHT22;11238;48.730;11.566;2023-07-20T12:33:12;25.20;53.50
22145;DHT22;11238;48.730;11.566;2023-07-20T12:35:41;25.20;54.40
22145;DHT22;11238;48.730;11.566;2023-07-20T12:38:07;25.40;56.10
22145;DHT22;11238;48.730;11.566;2023-07-20T12:40:34;25.50;55.20
22145;DHT22;11238;48.730;11.566;2023-07-20T12:43:00;25.50;54.10
22145;DHT22;11238;48.730;11.566;2023-07-20T12:45:26;25.50;54.50
22145;DHT22;11238;48.730;11.566;2023-07-20T12:47:53;25.30;53.40
22145;DHT22;11238;48.730;11.566;2023-07-20T12:50:18;25.20;52.40
22145;DHT22;11238;48.730;11.566;2023-07-20T12:52:44;25.40;53.60
22145;DHT22;11238;48.730;11.566;2023-07-20T12:55:10;25.50;51.60
22145;DHT22;11238;48.730;11.566;2023-07-20T12:57:37;25.70;51.90
22145;DHT22;11238;48.730;11.566;2023-07-20T13:00:05;25.90;51.10
22145;DHT22;11238;48.730;11.566;2023-07-20T13:02:32;25.90;50.60
22145;DHT22;11238;48.730;11.566;2023-07-20T13:04:59;25.90;49.40
22145;DHT22;11238;48.730;11.566;2023-07-20T13:09:58;25.90;49.20
22145;DHT22;11238;48.730;11.566;2023-07-20T13:12:26;25.90;48.90
22145;DHT22;11238;48.730;11.566;2023-07-20T13:14:52;26.00;49.90
22145;DHT22;11238;48.730;11.566;2023-07-20T13:17:18;26.30;49.70
22145;DHT22;11238;48.730;11.566;2023-07-20T13:19:44;26.50;49.00
22145;DHT22;11238;48.730;11.566;2023-07-20T13:22:11;26.20;46.60
22145;DHT22;11238;48.730;11.566;2023-07-20T13:24:37;26.50;48.30
22145;DHT22;11238;48.730;11.566;2023-07-20T13:27:03;26.40;47.10
22145;DHT22;11238;48.730;11.566;2023-07-20T13:29:28;26.10;46.60
22145;DHT22;11238;48.730;11.566;2023-07-20T13:31:54;25.80;47.40
22145;DHT22;11238;48.730;11.566;2023-07-20T13:34:20;25.70;48.40
22145;DHT22;11238;48.730;11.566;2023-07-20T13:36:45;25.90;48.40
22145;DHT22;11238;48.730;11.566;2023-07-20T13:39:11;26.10;49.30
22145;DHT22;11238;48.730;11.566;2023-07-20T13:41:37;26.30;49.70
22145;DHT22;11238;48.730;11.566;2023-07-20T13:44:02;26.40;48.70
22145;DHT22;11238;48.730;11.566;2023-07-20T13:46:28;26.40;49.90
22145;DHT22;11238;48.730;11.566;2023-07-20T13:48:54;26.40;49.20
22145;DHT22;11238;48.730;11.566;2023-07-20T13:51:20;26.70;50.60
22145;DHT22;11238;48.730;11.566;2023-07-20T13:53:47;26.80;48.20
22145;DHT22;11238;48.730;11.566;2023-07-20T13:56:13;26.80;46.90
22145;DHT22;11238;48.730;11.566;2023-07-20T13:58:39;26.50;47.20
22145;DHT22;11238;48.730;11.566;2023-07-20T14:01:04;26.20;47.40
22145;DHT22;11238;48.730;11.566;2023-07-20T14:03:30;26.20;48.60
22145;DHT22;11238;48.730;11.566;2023-07-20T14:06:31;26.40;47.80
22145;DHT22;11238;48.730;11.566;2023-07-20T14:18:07;26.00;47.90
22145;DHT22;11238;48.730;11.566;2023-07-20T14:20:33;26.00;49.10
22145;DHT22;11238;48.730;11.566;2023-07-20T14:22:59;25.90;47.70
22145;DHT22;11238;48.730;11.566;2023-07-20T14:25:25;25.90;49.60
22145;DHT22;11238;48.730;11.566;2023-07-20T14:27:51;26.00;48.50
22145;DHT22;11238;48.730;11.566;2023-07-20T14:30:16;26.20;49.60
22145;DHT22;11238;48.730;11.566;2023-07-20T14:32:42;26.10;49.00
22145;DHT22;11238;48.730;11.566;2023-07-20T14:35:08;25.90;49.30
22145;DHT22;11238;48.730;11.566;2023-07-20T14:37:35;25.70;47.90
22145;DHT22;11238;48.730;11.566;2023-07-20T14:40:00;25.40;49.30
22145;DHT22;11238;48.730;11.566;2023-07-20T14:42:26;25.50;49.20
22145;DHT22;11238;48.730;11.566;2023-07-20T14:44:52;25.80;49.70
22145;DHT22;11238;48.730;11.566;2023-07-20T14:47:18;26.10;49.20
22145;DHT22;11238;48.730;11.566;2023-07-20T14:49:44;26.20;48.70
22145;DHT22;11238;48.730;11.566;2023-07-20T14:52:10;26.30;49.10
22145;DHT22;11238;48.730;11.566;2023-07-20T14:54:37;26.40;47.70
22145;DHT22;11238;48.730;11.566;2023-07-20T14:57:04;26.40;49.30
22145;DHT22;11238;48.730;11.566;2023-07-20T14:59:30;26.60;47.50
22145;DHT22;11238;48.730;11.566;2023-07-20T15:01:56;26.30;47.10
22145;DHT22;11238;48.730;11.566;2023-07-20T15:04:22;26.40;48.40
22145;DHT22;11238;48.730;11.566;2023-07-20T15:06:47;26.60;49.80
22145;DHT22;11238;48.730;11.566;2023-07-20T15:09:13;26.50;47.20
22145;DHT22;11238;48.730;11.566;2023-07-20T15:11:39;26.30;46.70
22145;DHT22;11238;48.730;11.566;2023-07-20T15:14:05;26.10;47.30
22145;DHT22;11238;48.730;11.566;2023-07-20T15:16:31;26.20;48.40
22145;DHT22;11238;48.730;11.566;2023-07-20T15:18:57;26.30;48.40
22145;DHT22;11238;48.730;11.566;2023-07-20T15:21:23;26.20;47.60
22145;DHT22;11238;48.730;11.566;2023-07-20T15:23:49;26.20;48.30
22145;DHT22;11238;48.730;11.566;2023-07-20T15:26:15;26.10;48.10
22145;DHT22;11238;48.730;11.566;2023-07-20T15:28:41;26.20;49.50
22145;DHT22;11238;48.730;11.566;2023-07-20T15:31:07;26.30;48.30
22145;DHT22;11238;48.730;11.566;2023-07-20T15:33:33;26.30;48.10
22145;DHT22;11238;48.730;11.566;2023-07-20T15:35:59;26.50;47.60
22145;DHT22;11238;48.730;11.566;2023-07-20T15:38:25;26.50;47.60
22145;DHT22;11238;48.730;11.566;2023-07-20T15:40:51;26.60;46.90
22145;DHT22;11238;48.730;11.566;2023-07-20T15:43:17;26.80;48.30
22145;DHT22;11238;48.730;11.566;2023-07-20T15:45:47;26.70;47.30
22145;DHT22;11238;48.730;11.566;2023-07-20T15:48:17;26.50;46.80
22145;DHT22;11238;48.730;11.566;2023-07-20T15:50:45;26.60;47.80
22145;DHT22;11238;48.730;11.566;2023-07-20T15:53:11;26.70;46.90
22145;DHT22;11238;48.730;11.566;2023-07-20T15:55:36;26.70;47.30